sensor_id;sensor_type;location;lat;lon;timestamp;temperature;humidity
33139;DHT22;19501;50.948;5.316;2023-06-14T00:00:51;19.90;72.40
33139;DHT22;19501;50.948;5.316;2023-06-14T00:03:18;19.90;73.20
33139;DHT22;19501;50.948;5.316;2023-06-14T00:05:48;19.80;73.60
33139;DHT22;19501;50.948;5.316;2023-06-14T00:08:14;19.70;74.00
33139;DHT22;19501;50.948;5.316;2023-06-14T00:10:40;19.70;74.90
33139;DHT22;19501;50.948;5.316;2023-06-14T00:13:08;19.60;74.90
33139;DHT22;19501;50.948;5.316;2023-06-14T00:15:34;19.50;75.10
33139;DHT22;19501;50.948;5.316;2023-06-14T00:18:00;19.50;75.30
33139;DHT22;19501;50.948;5.316;2023-06-14T00:20:30;19.40;75.50
33139;DHT22;19501;50.948;5.316;2023-06-14T00:23:02;19.50;75.40
33139;DHT22;19501;50.948;5.316;2023-06-14T00:25:28;19.50;74.80
33139;DHT22;19501;50.948;5.316;2023-06-14T00:27:54;19.50;74.70
33139;DHT22;19501;50.948;5.316;2023-06-14T00:30:20;19.50;74.50
33139;DHT22;19501;50.948;5.316;2023-06-14T00:32:49;19.40;74.80
33139;DHT22;19501;50.948;5.316;2023-06-14T00:35:15;19.40;76.20
33139;DHT22;19501;50.948;5.316;2023-06-14T00:37:41;19.30;76.50
33139;DHT22;19501;50.948;5.316;2023-06-14T00:40:07;19.30;76.10
33139;DHT22;19501;50.948;5.316;2023-06-14T00:42:33;19.40;76.00
33139;DHT22;19501;50.948;5.316;2023-06-14T00:45:00;19.30;75.70
33139;DHT22;19501;50.948;5.316;2023-06-14T00:47:26;19.40;76.30
33139;DHT22;19501;50.948;5.316;2023-06-14T00:49:53;19.30;76.10
33139;DHT22;19501;50.948;5.316;2023-06-14T00:52:20;19.30;77.00
33139;DHT22;19501;50.948;5.316;2023-06-14T00:54:46;19.40;76.60
33139;DHT22;19501;50.948;5.316;2023-06-14T00:57:12;19.40;75.60
33139;DHT22;19501;50.948;5.316;2023-06-14T00:59:43;19.50;75.30
33139;DHT22;19501;50.948;5.316;2023-06-14T01:02:09;19.50;75.50
33139;DHT22;19501;50.948;5.316;2023-06-14T01:04:35;19.40;76.70
33139;DHT22;19501;50.948;5.316;2023-06-14T01:15:20;19.30;77.20
33139;DHT22;19501;50.948;5.316;2023-06-14T01:17:49;19.30;77.10
33139;DHT22;19501;50.948;5.316;2023-06-14T01:20:17;19.20;77.40
33139;DHT22;19501;50.948;5.316;2023-06-14T01:23:01;19.20;76.20
33139;DHT22;19501;50.948;5.316;2023-06-14T01:25:27;19.30;75.20
33139;DHT22;19501;50.948;5.316;2023-06-14T01:27:57;19.30;74.70
33139;DHT22;19501;50.948;5.316;2023-06-14T01:30:24;19.50;73.10
33139;DHT22;19501;50.948;5.316;2023-06-14T01:32:54;19.60;71.70
33139;DHT22;19501;50.948;5.316;2023-06-14T01:35:21;19.80;71.00
33139;DHT22;19501;50.948;5.316;2023-06-14T01:37:50;19.90;70.80
33139;DHT22;19501;50.948;5.316;2023-06-14T01:40:18;19.80;71.00
33139;DHT22;19501;50.948;5.316;2023-06-14T01:42:47;19.70;70.70
33139;DHT22;19501;50.948;5.316;2023-06-14T01:45:18;19.70;70.70
33139;DHT22;19501;50.948;5.316;2023-06-14T01:47:46;19.80;70.80
33139;DHT22;19501;50.948;5.316;2023-06-14T01:50:13;19.80;70.80
33139;DHT22;19501;50.948;5.316;2023-06-14T01:52:41;19.70;71.00
33139;DHT22;19501;50.948;5.316;2023-06-14T01:55:07;19.70;70.70
33139;DHT22;19501;50.948;5.316;2023-06-14T01:57:35;19.70;71.40
33139;DHT22;19501;50.948;5.316;2023-06-14T02:00:01;19.60;71.60
33139;DHT22;19501;50.948;5.316;2023-06-14T02:02:29;19.60;71.70
33139;DHT22;19501;50.948;5.316;2023-06-14T02:04:57;19.60;71.40
33139;DHT22;19501;50.948;5.316;2023-06-14T02:07:23;19.60;71.10
33139;DHT22;19501;50.948;5.316;2023-06-14T02:09:49;19.70;70.70
33139;DHT22;19501;50.948;5.316;2023-06-14T02:12:15;19.70;70.40
33139;DHT22;19501;50.948;5.316;2023-06-14T02:14:40;19.70;70.30
33139;DHT22;19501;50.948;5.316;2023-06-14T02:17:06;19.70;70.00
33139;DHT22;19501;50.948;5.316;2023-06-14T02:19:32;19.80;69.70
33139;DHT22;19501;50.948;5.316;2023-06-14T02:21:57;19.80;69.80
33139;DHT22;19501;50.948;5.316;2023-06-14T02:24:23;19.60;70.20
33139;DHT22;19501;50.948;5.316;2023-06-14T02:26:51;19.60;70.30
33139;DHT22;19501;50.948;5.316;2023-06-14T02:29:17;19.60;70.50
33139;DHT22;19501;50.948;5.316;2023-06-14T02:31:45;19.50;70.70
33139;DHT22;19501;50.948;5.316;2023-06-14T02:34:12;19.50;70.80
33139;DHT22;19501;50.948;5.316;2023-06-14T02:36:40;19.50;71.30
33139;DHT22;19501;50.948;5.316;2023-06-14T02:39:08;19.40;71.20
33139;DHT22;19501;50.948;5.316;2023-06-14T02:41:37;19.30;71.50
33139;DHT22;19501;50.948;5.316;2023-06-14T02:44:03;19.40;71.40
33139;DHT22;19501;50.948;5.316;2023-06-14T02:46:28;19.40;71.10
33139;DHT22;19501;50.948;5.316;2023-06-14T02:48:54;19.50;71.30
33139;DHT22;19501;50.948;5.316;2023-06-14T02:51:20;19.40;71.40
33139;DHT22;19501;50.948;5.316;2023-06-14T02:53:45;19.40;71.60
33139;DHT22;19501;50.948;5.316;2023-06-14T02:56:11;19.30;71.70
33139;DHT22;19501;50.948;5.316;2023-06-14T02:58:37;19.30;71.70
33139;DHT22;19501;50.948;5.316;2023-06-14T03:01:05;19.30;71.80
33139;DHT22;19501;50.948;5.316;2023-06-14T03:03:33;19.30;71.70
33139;DHT22;19501;50.948;5.316;2023-06-14T03:05:59;19.20;71.90
33139;DHT22;19501;50.948;5.316;2023-06-14T03:08:31;19.20;72.50
33139;DHT22;19501;50.948;5.316;2023-06-14T03:10:58;19.00;73.50
33139;DHT22;19501;50.948;5.316;2023-06-14T03:13:24;18.80;73.80
33139;DHT22;19501;50.948;5.316;2023-06-14T03:15:50;18.80;74.00
33139;DHT22;19501;50.948;5.316;2023-06-14T03:18:16;18.80;74.10
33139;DHT22;19501;50.948;5.316;2023-06-14T03:20:42;18.90;73.60
33139;DHT22;19501;50.948;5.316;2023-06-14T03:23:08;18.80;73.70
33139;DHT22;19501;50.948;5.316;2023-06-14T03:25:34;18.70;74.30
33139;DHT22;19501;50.948;5.316;2023-06-14T03:28:06;18.80;73.90
33139;DHT22;19501;50.948;5.316;2023-06-14T03:30:32;18.80;73.60
33139;DHT22;19501;50.948;5.316;2023-06-14T03:32:58;18.70;74.70
33139;DHT22;19501;50.948;5.316;2023-06-14T03:35:26;18.60;74.70
33139;DHT22;19501;50.948;5.316;2023-06-14T03:37:52;18.60;74.80
33139;DHT22;19501;50.948;5.316;2023-06-14T03:40:18;18.70;74.30
33139;DHT22;19501;50.948;5.316;2023-06-14T03:42:45;18.60;74.40
33139;DHT22;19501;50.948;5.316;2023-06-14T03:45:11;18.70;74.50
33139;DHT22;19501;50.948;5.316;2023-06-14T03:47:37;18.60;74.70
33139;DHT22;19501;50.948;5.316;2023-06-14T03:50:03;18.60;74.80
33139;DHT22;19501;50.948;5.316;2023-06-14T03:52:29;18.50;75.00
33139;DHT22;19501;50.948;5.316;2023-06-14T03:54:56;18.50;74.80
33139;DHT22;19501;50.948;5.316;2023-06-14T03:57:23;18.60;74.90
33139;DHT22;19501;50.948;5.316;2023-06-14T03:59:49;18.50;75.20
33139;DHT22;19501;50.948;5.316;2023-06-14T04:02:15;18.40;75.60
33139;DHT22;19501;50.948;5.316;2023-06-14T04:04:42;18.40;76.00
33139;DHT22;19501;50.948;5.316;2023-06-14T04:07:11;18.50;75.70
33139;DHT22;19501;50.948;5.316;2023-06-14T04:09:38;18.50;75.90
33139;DHT22;19501;50.948;5.316;2023-06-14T04:12:04;18.40;75.80
33139;DHT22;19501;50.948;5.316;2023-06-14T04:14:30;18.50;76.00
33139;DHT22;19501;50.948;5.316;2023-06-14T04:16:58;18.40;76.00
33139;DHT22;19501;50.948;5.316;2023-06-14T04:19:27;18.50;76.40
33139;DHT22;19501;50.948;5.316;2023-06-14T04:21:53;18.40;76.70
33139;DHT22;19501;50.948;5.316;2023-06-14T04:24:18;18.50;76.70
33139;DHT22;19501;50.948;5.316;2023-06-14T04:26:45;18.50;76.70
33139;DHT22;19501;50.948;5.316;2023-06-14T04:29:17;18.60;76.40
33139;DHT22;19501;50.948;5.316;2023-06-14T04:31:45;18.60;76.30
33139;DHT22;19501;50.948;5.316;2023-06-14T04:34:11;18.60;76.20
33139;DHT22;19501;50.948;5.316;2023-06-14T04:36:41;18.60;76.70
33139;DHT22;19501;50.948;5.316;2023-06-14T04:39:17;18.50;76.50
33139;DHT22;19501;50.948;5.316;2023-06-14T04:41:43;18.60;76.80
33139;DHT22;19501;50.948;5.316;2023-06-14T04:44:10;18.60;77.00
33139;DHT22;19501;50.948;5.316;2023-06-14T04:46:36;18.70;76.70
33139;DHT22;19501;50.948;5.316;2023-06-14T04:49:22;18.70;76.60
33139;DHT22;19501;50.948;5.316;2023-06-14T04:51:48;18.70;77.20
33139;DHT22;19501;50.948;5.316;2023-06-14T04:54:23;18.70;77.20
33139;DHT22;19501;50.948;5.316;2023-06-14T04:56:50;18.70;77.50
33139;DHT22;19501;50.948;5.316;2023-06-14T04:59:16;18.80;77.00
33139;DHT22;19501;50.948;5.316;2023-06-14T05:01:42;18.90;76.80
33139;DHT22;19501;50.948;5.316;2023-06-14T05:04:16;18.90;77.00
33139;DHT22;19501;50.948;5.316;2023-06-14T05:06:42;18.90;76.90
33139;DHT22;19501;50.948;5.316;2023-06-14T05:09:14;19.00;76.80
33139;DHT22;19501;50.948;5.316;2023-06-14T05:11:43;19.00;76.70
33139;DHT22;19501;50.948;5.316;2023-06-14T05:14:12;18.90;77.00
33139;DHT22;19501;50.948;5.316;2023-06-14T05:16:38;18.90;77.70
33139;DHT22;19501;50.948;5.316;2023-06-14T05:19:07;18.80;79.20
33139;DHT22;19501;50.948;5.316;2023-06-14T05:21:38;18.90;78.10
33139;DHT22;19501;50.948;5.316;2023-06-14T05:24:04;19.00;77.80
33139;DHT22;19501;50.948;5.316;2023-06-14T05:26:30;18.90;77.80
33139;DHT22;19501;50.948;5.316;2023-06-14T05:28:56;19.00;78.90
33139;DHT22;19501;50.948;5.316;2023-06-14T05:31:23;19.10;79.20
33139;DHT22;19501;50.948;5.316;2023-06-14T05:33:50;19.20;78.00
33139;DHT22;19501;50.948;5.316;2023-06-14T05:36:16;19.40;77.70
33139;DHT22;19501;50.948;5.316;2023-06-14T05:38:45;19.40;77.50
33139;DHT22;19501;50.948;5.316;2023-06-14T05:41:11;19.50;77.30
33139;DHT22;19501;50.948;5.316;2023-06-14T05:43:36;19.50;77.40
33139;DHT22;19501;50.948;5.316;2023-06-14T05:46:02;19.60;77.40
33139;DHT22;19501;50.948;5.316;2023-06-14T05:48:29;19.60;77.40
33139;DHT22;19501;50.948;5.316;2023-06-14T05:50:55;19.60;77.60
33139;DHT22;19501;50.948;5.316;2023-06-14T05:53:21;19.70;77.20
33139;DHT22;19501;50.948;5.316;2023-06-14T05:55:47;19.80;77.80
33139;DHT22;19501;50.948;5.316;2023-06-14T05:58:12;19.80;77.90
33139;DHT22;19501;50.948;5.316;2023-06-14T06:00:46;19.90;77.30
33139;DHT22;19501;50.948;5.316;2023-06-14T06:03:12;20.10;76.60
33139;DHT22;19501;50.948;5.316;2023-06-14T06:05:38;20.10;76.80
33139;DHT22;19501;50.948;5.316;2023-06-14T06:08:04;20.10;76.10
33139;DHT22;19501;50.948;5.316;2023-06-14T06:10:30;20.10;77.00
33139;DHT22;19501;50.948;5.316;2023-06-14T06:12:56;20.20;77.20
33139;DHT22;19501;50.948;5.316;2023-06-14T06:15:21;20.30;75.90
33139;DHT22;19501;50.948;5.316;2023-06-14T06:17:47;20.40;76.30
33139;DHT22;19501;50.948;5.316;2023-06-14T06:20:13;20.50;75.60
33139;DHT22;19501;50.948;5.316;2023-06-14T06:22:38;20.70;76.00
33139;DHT22;19501;50.948;5.316;2023-06-14T06:25:07;20.80;75.20
33139;DHT22;19501;50.948;5.316;2023-06-14T06:27:37;20.90;76.10
33139;DHT22;19501;50.948;5.316;2023-06-14T06:30:08;21.00;74.40
33139;DHT22;19501;50.948;5.316;2023-06-14T06:32:34;21.00;74.90
33139;DHT22;19501;50.948;5.316;2023-06-14T06:34:59;21.20;74.90
33139;DHT22;19501;50.948;5.316;2023-06-14T06:37:25;21.30;74.50
33139;DHT22;19501;50.948;5.316;2023-06-14T06:39:51;21.50;73.40
33139;DHT22;19501;50.948;5.316;2023-06-14T06:42:17;21.40;73.60
33139;DHT22;19501;50.948;5.316;2023-06-14T06:44:42;21.60;72.10
33139;DHT22;19501;50.948;5.316;2023-06-14T06:47:08;21.70;70.40
33139;DHT22;19501;50.948;5.316;2023-06-14T06:49:35;21.90;68.80
33139;DHT22;19501;50.948;5.316;2023-06-14T06:52:04;22.00;68.90
33139;DHT22;19501;50.948;5.316;2023-06-14T06:54:31;22.10;68.90
33139;DHT22;19501;50.948;5.316;2023-06-14T06:56:57;22.20;69.80
33139;DHT22;19501;50.948;5.316;2023-06-14T06:59:25;22.30;67.80
33139;DHT22;19501;50.948;5.316;2023-06-14T07:01:51;22.30;67.70
33139;DHT22;19501;50.948;5.316;2023-06-14T07:04:16;22.40;69.20
33139;DHT22;19501;50.948;5.316;2023-06-14T07:06:43;22.60;68.10
33139;DHT22;19501;50.948;5.316;2023-06-14T07:09:09;22.70;67.60
33139;DHT22;19501;50.948;5.316;2023-06-14T07:11:42;22.80;67.60
33139;DHT22;19501;50.948;5.316;2023-06-14T07:14:11;22.90;67.00
33139;DHT22;19501;50.948;5.316;2023-06-14T07:16:37;22.90;67.40
33139;DHT22;19501;50.948;5.316;2023-06-14T07:19:03;22.90;66.70
33139;DHT22;19501;50.948;5.316;2023-06-14T07:21:29;22.80;65.20
33139;DHT22;19501;50.948;5.316;2023-06-14T07:23:55;22.80;65.90
33139;DHT22;19501;50.948;5.316;2023-06-14T07:26:22;22.90;66.60
33139;DHT22;19501;50.948;5.316;2023-06-14T07:28:49;23.00;65.90
33139;DHT22;19501;50.948;5.316;2023-06-14T07:31:19;23.10;65.20
33139;DHT22;19501;50.948;5.316;2023-06-14T07:33:45;23.20;64.80
33139;DHT22;19501;50.948;5.316;2023-06-14T07:36:11;23.30;64.50
33139;DHT22;19501;50.948;5.316;2023-06-14T07:38:37;23.40;63.20
33139;DHT22;19501;50.948;5.316;2023-06-14T07:41:06;23.40;62.80
33139;DHT22;19501;50.948;5.316;2023-06-14T07:43:31;23.40;63.20
33139;DHT22;19501;50.948;5.316;2023-06-14T07:46:00;23.50;62.90
33139;DHT22;19501;50.948;5.316;2023-06-14T07:48:25;23.50;63.20
33139;DHT22;19501;50.948;5.316;2023-06-14T07:50:51;23.60;64.00
33139;DHT22;19501;50.948;5.316;2023-06-14T07:53:17;23.60;63.20
33139;DHT22;19501;50.948;5.316;2023-06-14T07:55:42;23.70;62.60
33139;DHT22;19501;50.948;5.316;2023-06-14T07:58:09;24.00;62.50
33139;DHT22;19501;50.948;5.316;2023-06-14T08:00:35;24.00;62.00
33139;DHT22;19501;50.948;5.316;2023-06-14T08:03:01;24.10;61.40
33139;DHT22;19501;50.948;5.316;2023-06-14T08:05:27;24.20;62.00
33139;DHT22;19501;50.948;5.316;2023-06-14T08:07:54;24.50;62.20
33139;DHT22;19501;50.948;5.316;2023-06-14T08:10:20;24.60;61.50
33139;DHT22;19501;50.948;5.316;2023-06-14T08:12:49;24.70;60.90
33139;DHT22;19501;50.948;5.316;2023-06-14T08:15:18;24.60;60.90
33139;DHT22;19501;50.948;5.316;2023-06-14T08:17:44;24.60;60.50
33139;DHT22;19501;50.948;5.316;2023-06-14T08:20:11;24.80;60.90
33139;DHT22;19501;50.948;5.316;2023-06-14T08:22:36;24.80;60.30
33139;DHT22;19501;50.948;5.316;2023-06-14T08:25:08;24.90;60.40
33139;DHT22;19501;50.948;5.316;2023-06-14T08:27:37;25.10;60.40
33139;DHT22;19501;50.948;5.316;2023-06-14T08:30:03;25.20;59.70
33139;DHT22;19501;50.948;5.316;2023-06-14T08:32:29;25.20;60.20
33139;DHT22;19501;50.948;5.316;2023-06-14T08:34:54;25.20;58.80
33139;DHT22;19501;50.948;5.316;2023-06-14T08:37:20;25.30;58.70
33139;DHT22;19501;50.948;5.316;2023-06-14T08:39:46;25.30;58.20
33139;DHT22;19501;50.948;5.316;2023-06-14T08:42:12;25.30;59.20
33139;DHT22;19501;50.948;5.316;2023-06-14T08:44:39;25.40;57.80
33139;DHT22;19501;50.948;5.316;2023-06-14T08:47:07;25.40;58.50
33139;DHT22;19501;50.948;5.316;2023-06-14T08:49:33;25.50;58.00
33139;DHT22;19501;50.948;5.316;2023-06-14T08:52:00;25.50;58.10
33139;DHT22;19501;50.948;5.316;2023-06-14T08:54:28;25.60;58.60
33139;DHT22;19501;50.948;5.316;2023-06-14T08:57:02;25.60;58.20
33139;DHT22;19501;50.948;5.316;2023-06-14T08:59:28;25.80;58.80
33139;DHT22;19501;50.948;5.316;2023-06-14T09:01:56;26.00;57.30
33139;DHT22;19501;50.948;5.316;2023-06-14T09:04:25;26.20;55.90
33139;DHT22;19501;50.948;5.316;2023-06-14T09:06:55;26.10;55.90
33139;DHT22;19501;50.948;5.316;2023-06-14T09:09:21;26.10;55.10
33139;DHT22;19501;50.948;5.316;2023-06-14T09:11:50;26.20;55.40
33139;DHT22;19501;50.948;5.316;2023-06-14T09:14:15;26.40;55.20
33139;DHT22;19501;50.948;5.316;2023-06-14T09:16:41;26.40;54.80
33139;DHT22;19501;50.948;5.316;2023-06-14T09:19:07;26.50;54.30
33139;DHT22;19501;50.948;5.316;2023-06-14T09:21:36;26.50;53.90
33139;DHT22;19501;50.948;5.316;2023-06-14T09:24:05;26.30;54.80
33139;DHT22;19501;50.948;5.316;2023-06-14T09:26:31;26.50;55.10
33139;DHT22;19501;50.948;5.316;2023-06-14T09:28:59;26.80;54.10
33139;DHT22;19501;50.948;5.316;2023-06-14T09:31:25;27.10;52.30
33139;DHT22;19501;50.948;5.316;2023-06-14T09:33:55;27.00;52.60
33139;DHT22;19501;50.948;5.316;2023-06-14T09:36:23;27.00;52.90
33139;DHT22;19501;50.948;5.316;2023-06-14T09:39:01;26.90;53.30
33139;DHT22;19501;50.948;5.316;2023-06-14T09:41:40;26.90;53.60
33139;DHT22;19501;50.948;5.316;2023-06-14T09:44:10;27.10;53.00
33139;DHT22;19501;50.948;5.316;2023-06-14T09:46:37;27.10;52.90
33139;DHT22;19501;50.948;5.316;2023-06-14T09:49:06;27.20;53.40
33139;DHT22;19501;50.948;5.316;2023-06-14T09:51:36;27.30;51.80
33139;DHT22;19501;50.948;5.316;2023-06-14T09:54:03;27.40;52.30
33139;DHT22;19501;50.948;5.316;2023-06-14T09:56:35;27.60;51.90
33139;DHT22;19501;50.948;5.316;2023-06-14T09:59:05;27.80;52.30
33139;DHT22;19501;50.948;5.316;2023-06-14T10:01:33;27.80;51.40
33139;DHT22;19501;50.948;5.316;2023-06-14T10:04:05;27.80;50.90
33139;DHT22;19501;50.948;5.316;2023-06-14T10:06:32;28.00;51.60
33139;DHT22;19501;50.948;5.316;2023-06-14T10:09:00;28.00;51.30
33139;DHT22;19501;50.948;5.316;2023-06-14T10:11:27;28.10;50.10
33139;DHT22;19501;50.948;5.316;2023-06-14T10:13:57;28.30;50.90
33139;DHT22;19501;50.948;5.316;2023-06-14T10:16:50;28.40;50.60
33139;DHT22;19501;50.948;5.316;2023-06-14T10:19:25;28.50;51.20
33139;DHT22;19501;50.948;5.316;2023-06-14T10:22:04;28.50;49.50
33139;DHT22;19501;50.948;5.316;2023-06-14T10:24:38;28.40;50.60
33139;DHT22;19501;50.948;5.316;2023-06-14T10:27:07;28.20;50.30
33139;DHT22;19501;50.948;5.316;2023-06-14T10:32:26;28.70;50.50
33139;DHT22;19501;50.948;5.316;2023-06-14T10:37:27;28.50;49.60
33139;DHT22;19501;50.948;5.316;2023-06-14T10:39:53;28.60;50.20
33139;DHT22;19501;50.948;5.316;2023-06-14T10:42:19;28.60;49.70
33139;DHT22;19501;50.948;5.316;2023-06-14T10:44:53;28.70;49.20
33139;DHT22;19501;50.948;5.316;2023-06-14T10:49:52;29.00;49.20
33139;DHT22;19501;50.948;5.316;2023-06-14T10:52:22;29.40;49.80
33139;DHT22;19501;50.948;5.316;2023-06-14T10:55:06;29.40;49.00
33139;DHT22;19501;50.948;5.316;2023-06-14T10:57:35;29.50;49.10
33139;DHT22;19501;50.948;5.316;2023-06-14T11:00:03;29.70;48.10
33139;DHT22;19501;50.948;5.316;2023-06-14T11:05:54;30.20;45.70
33139;DHT22;19501;50.948;5.316;2023-06-14T11:10:54;30.60;45.10
33139;DHT22;19501;50.948;5.316;2023-06-14T11:13:25;31.00;46.40
33139;DHT22;19501;50.948;5.316;2023-06-14T11:15:51;31.60;44.60
33139;DHT22;19501;50.948;5.316;2023-06-14T11:18:22;32.70;44.50
33139;DHT22;19501;50.948;5.316;2023-06-14T11:20:50;32.40;44.00
33139;DHT22;19501;50.948;5.316;2023-06-14T11:23:16;31.90;43.00
33139;DHT22;19501;50.948;5.316;2023-06-14T11:25:42;32.10;43.20
33139;DHT22;19501;50.948;5.316;2023-06-14T11:28:07;32.80;43.00
33139;DHT22;19501;50.948;5.316;2023-06-14T11:30:33;33.60;41.90
33139;DHT22;19501;50.948;5.316;2023-06-14T11:32:59;33.30;42.10
33139;DHT22;19501;50.948;5.316;2023-06-14T11:35:28;32.80;40.80
33139;DHT22;19501;50.948;5.316;2023-06-14T11:37:57;33.40;42.00
33139;DHT22;19501;50.948;5.316;2023-06-14T11:40:26;32.60;40.50
33139;DHT22;19501;50.948;5.316;2023-06-14T11:43:01;32.90;41.40
33139;DHT22;19501;50.948;5.316;2023-06-14T11:45:27;33.00;40.60
33139;DHT22;19501;50.948;5.316;2023-06-14T11:47:56;33.20;40.50
33139;DHT22;19501;50.948;5.316;2023-06-14T11:50:22;33.00;40.10
33139;DHT22;19501;50.948;5.316;2023-06-14T11:52:55;32.50;41.00
33139;DHT22;19501;50.948;5.316;2023-06-14T11:55:24;32.90;41.70
33139;DHT22;19501;50.948;5.316;2023-06-14T11:57:51;33.10;41.30
33139;DHT22;19501;50.948;5.316;2023-06-14T12:00:18;33.10;40.60
33139;DHT22;19501;50.948;5.316;2023-06-14T12:02:52;33.40;40.10
33139;DHT22;19501;50.948;5.316;2023-06-14T12:05:21;32.90;40.30
33139;DHT22;19501;50.948;5.316;2023-06-14T12:07:48;33.60;41.20
33139;DHT22;19501;50.948;5.316;2023-06-14T12:10:15;33.80;40.50
33139;DHT22;19501;50.948;5.316;2023-06-14T12:12:42;34.90;39.90
33139;DHT22;19501;50.948;5.316;2023-06-14T12:15:09;35.00;39.50
33139;DHT22;19501;50.948;5.316;2023-06-14T12:17:37;35.60;38.90
33139;DHT22;19501;50.948;5.316;2023-06-14T12:20:09;35.20;38.90
33139;DHT22;19501;50.948;5.316;2023-06-14T12:22:46;34.10;39.20
33139;DHT22;19501;50.948;5.316;2023-06-14T12:25:30;33.60;40.10
33139;DHT22;19501;50.948;5.316;2023-06-14T12:28:03;34.20;39.90
33139;DHT22;19501;50.948;5.316;2023-06-14T12:30:29;35.20;40.60
33139;DHT22;19501;50.948;5.316;2023-06-14T12:32:55;35.10;39.60
33139;DHT22;19501;50.948;5.316;2023-06-14T12:35:21;35.90;39.10
33139;DHT22;19501;50.948;5.316;2023-06-14T12:37:46;36.10;39.40
33139;DHT22;19501;50.948;5.316;2023-06-14T12:40:13;35.80;38.50
33139;DHT22;19501;50.948;5.316;2023-06-14T12:42:41;36.60;38.30
33139;DHT22;19501;50.948;5.316;2023-06-14T12:45:07;35.40;39.60
33139;DHT22;19501;50.948;5.316;2023-06-14T12:47:33;35.50;40.10
33139;DHT22;19501;50.948;5.316;2023-06-14T12:49:59;34.60;40.50
33139;DHT22;19501;50.948;5.316;2023-06-14T12:52:27;34.40;40.00
33139;DHT22;19501;50.948;5.316;2023-06-14T12:54:52;34.70;41.50
33139;DHT22;19501;50.948;5.316;2023-06-14T12:57:19;34.50;40.30
33139;DHT22;19501;50.948;5.316;2023-06-14T12:59:45;34.70;40.20
33139;DHT22;19501;50.948;5.316;2023-06-14T13:02:16;36.00;40.30
33139;DHT22;19501;50.948;5.316;2023-06-14T13:04:42;37.20;39.80
33139;DHT22;19501;50.948;5.316;2023-06-14T13:07:08;36.30;38.60
33139;DHT22;19501;50.948;5.316;2023-06-14T13:09:36;35.10;39.30
33139;DHT22;19501;50.948;5.316;2023-06-14T13:12:04;34.40;40.00
33139;DHT22;19501;50.948;5.316;2023-06-14T13:14:31;35.00;39.30
33139;DHT22;19501;50.948;5.316;2023-06-14T13:16:57;34.70;40.20
33139;DHT22;19501;50.948;5.316;2023-06-14T13:19:26;34.80;40.30
33139;DHT22;19501;50.948;5.316;2023-06-14T13:21:52;35.80;39.30
33139;DHT22;19501;50.948;5.316;2023-06-14T13:24:17;36.70;38.60
33139;DHT22;19501;50.948;5.316;2023-06-14T13:26:43;36.60;38.30
33139;DHT22;19501;50.948;5.316;2023-06-14T13:29:09;35.70;38.80
33139;DHT22;19501;50.948;5.316;2023-06-14T13:31:35;35.70;39.70
33139;DHT22;19501;50.948;5.316;2023-06-14T13:34:00;36.60;39.70
33139;DHT22;19501;50.948;5.316;2023-06-14T13:36:26;37.90;38.20
33139;DHT22;19501;50.948;5.316;2023-06-14T13:38:52;37.90;37.60
33139;DHT22;19501;50.948;5.316;2023-06-14T13:41:18;37.40;38.80
33139;DHT22;19501;50.948;5.316;2023-06-14T13:43:44;36.10;39.20
33139;DHT22;19501;50.948;5.316;2023-06-14T13:46:09;36.00;39.60
33139;DHT22;19501;50.948;5.316;2023-06-14T13:48:35;35.70;39.40
33139;DHT22;19501;50.948;5.316;2023-06-14T13:51:01;35.80;40.10
33139;DHT22;19501;50.948;5.316;2023-06-14T13:53:29;36.50;38.50
33139;DHT22;19501;50.948;5.316;2023-06-14T13:55:55;36.90;38.90
33139;DHT22;19501;50.948;5.316;2023-06-14T13:58:20;37.10;38.20
33139;DHT22;19501;50.948;5.316;2023-06-14T14:00:46;35.60;39.00
33139;DHT22;19501;50.948;5.316;2023-06-14T14:03:12;35.60;39.00
33139;DHT22;19501;50.948;5.316;2023-06-14T14:05:40;35.20;39.40
33139;DHT22;19501;50.948;5.316;2023-06-14T14:08:08;35.40;38.80
33139;DHT22;19501;50.948;5.316;2023-06-14T14:10:34;34.80;39.50
33139;DHT22;19501;50.948;5.316;2023-06-14T14:13:00;36.00;39.70
33139;DHT22;19501;50.948;5.316;2023-06-14T14:15:26;35.50;39.60
33139;DHT22;19501;50.948;5.316;2023-06-14T14:17:53;34.50;39.40
33139;DHT22;19501;50.948;5.316;2023-06-14T14:20:20;34.60;39.20
33139;DHT22;19501;50.948;5.316;2023-06-14T14:22:45;35.00;39.00
33139;DHT22;19501;50.948;5.316;2023-06-14T14:25:11;34.70;40.20
33139;DHT22;19501;50.948;5.316;2023-06-14T14:27:37;34.20;40.40
33139;DHT22;19501;50.948;5.316;2023-06-14T14:30:07;34.70;40.00
33139;DHT22;19501;50.948;5.316;2023-06-14T14:32:35;34.80;40.30
33139;DHT22;19501;50.948;5.316;2023-06-14T14:35:01;34.30;40.60
33139;DHT22;19501;50.948;5.316;2023-06-14T14:37:27;34.10;41.10
33139;DHT22;19501;50.948;5.316;2023-06-14T14:39:52;34.00;40.50
33139;DHT22;19501;50.948;5.316;2023-06-14T14:42:18;33.50;41.00
33139;DHT22;19501;50.948;5.316;2023-06-14T14:44:45;33.90;40.40
33139;DHT22;19501;50.948;5.316;2023-06-14T14:47:10;33.40;40.50
33139;DHT22;19501;50.948;5.316;2023-06-14T14:49:36;33.10;41.20
33139;DHT22;19501;50.948;5.316;2023-06-14T14:52:04;33.30;41.30
33139;DHT22;19501;50.948;5.316;2023-06-14T14:54:30;33.00;42.20
33139;DHT22;19501;50.948;5.316;2023-06-14T14:56:56;32.50;42.70
33139;DHT22;19501;50.948;5.316;2023-06-14T14:59:21;32.70;42.80
33139;DHT22;19501;50.948;5.316;2023-06-14T15:01:47;33.10;42.60
33139;DHT22;19501;50.948;5.316;2023-06-14T15:04:13;32.30;42.00
33139;DHT22;19501;50.948;5.316;2023-06-14T15:06:39;31.90;42.10
33139;DHT22;19501;50.948;5.316;2023-06-14T15:09:07;32.30;41.70
33139;DHT22;19501;50.948;5.316;2023-06-14T15:11:33;32.30;42.30
33139;DHT22;19501;50.948;5.316;2023-06-14T15:13:58;32.10;42.70
33139;DHT22;19501;50.948;5.316;2023-06-14T15:16:27;32.30;42.30
33139;DHT22;19501;50.948;5.316;2023-06-14T15:18:52;31.80;42.70
33139;DHT22;19501;50.948;5.316;2023-06-14T15:21:18;31.00;43.30
33139;DHT22;19501;50.948;5.316;2023-06-14T15:23:45;30.50;43.50
33139;DHT22;19501;50.948;5.316;2023-06-14T15:26:11;30.90;43.90
33139;DHT22;19501;50.948;5.316;2023-06-14T15:28:37;30.90;44.50
33139;DHT22;19501;50.948;5.316;2023-06-14T15:31:03;30.80;43.60
33139;DHT22;19501;50.948;5.316;2023-06-14T15:33:33;31.00;43.20
33139;DHT22;19501;50.948;5.316;2023-06-14T15:35:58;30.70;43.20
33139;DHT22;19501;50.948;5.316;2023-06-14T15:38:24;30.40;43.60
33139;DHT22;19501;50.948;5.316;2023-06-14T15:40:50;30.50;43.20
33139;DHT22;19501;50.948;5.316;2023-06-14T15:43:15;30.60;43.70
33139;DHT22;19501;50.948;5.316;2023-06-14T15:45:41;30.50;43.40
33139;DHT22;19501;50.948;5.316;2023-06-14T15:48:09;30.70;42.80
33139;DHT22;19501;50.948;5.316;2023-06-14T15:50:35;31.10;43.40
33139;DHT22;19501;50.948;5.316;2023-06-14T15:53:02;30.60;42.90